createdAt,value
2018-11-11T00:04:05.961Z,69.74
2018-11-11T00:12:26.956Z,70.58
2018-11-11T00:20:47.958Z,70.10
2018-11-11T00:29:08.941Z,70.08
2018-11-11T00:37:30.139Z,70.57
2018-11-11T00:45:51.134Z,69.51
2018-11-11T00:54:12.125Z,70.15
2018-11-11T01:02:33.148Z,70.34
2018-11-11T01:10:54.232Z,69.79
2018-11-11T01:19:15.252Z,69.60
2018-11-11T01:27:36.271Z,69.79
2018-11-11T01:35:57.365Z,69.49
2018-11-11T01:44:18.384Z,70.24
2018-11-11T01:52:39.388Z,70.46
2018-11-11T02:01:00.408Z,70.46
2018-11-11T02:09:21.430Z,70.35
2018-11-11T02:17:42.489Z,70.76
2018-11-11T02:26:03.511Z,69.87
2018-11-11T02:34:24.513Z,70.39
2018-11-11T02:42:45.521Z,69.45
2018-11-11T02:51:06.520Z,68.21
2018-11-11T02:59:27.597Z,67.92
2018-11-11T03:07:48.579Z,68.37
2018-11-11T03:16:09.617Z,67.05
2018-11-11T03:24:30.640Z,67.00
2018-11-11T03:32:51.641Z,66.92
2018-11-11T03:41:12.660Z,66.97
2018-11-11T03:49:33.680Z,67.13
2018-11-11T03:57:54.694Z,67.31
2018-11-11T04:06:15.697Z,66.73
2018-11-11T04:14:36.674Z,67.17
2018-11-11T04:22:57.650Z,66.59
2018-11-11T04:31:18.646Z,67.31
2018-11-11T04:39:39.650Z,67.37
2018-11-11T04:48:00.645Z,66.76
2018-11-11T04:56:21.644Z,66.42
2018-11-11T05:04:43.759Z,65.40
2018-11-11T05:13:04.690Z,66.05
2018-11-11T05:21:25.665Z,65.48
2018-11-11T05:29:46.705Z,65.32
2018-11-11T05:38:07.721Z,65.84
2018-11-11T05:46:28.721Z,65.99
2018-11-11T05:54:49.724Z,65.54
2018-11-11T06:03:10.725Z,65.91
2018-11-11T06:11:31.725Z,65.51
2018-11-11T06:19:52.707Z,65.29
2018-11-11T06:28:13.681Z,65.37
2018-11-11T06:36:34.699Z,65.46
2018-11-11T06:44:55.703Z,65.93
2018-11-11T06:53:16.755Z,66.27
2018-11-11T07:01:37.806Z,65.71
2018-11-11T07:09:58.802Z,65.12
2018-11-11T07:18:19.916Z,65.57
2018-11-11T07:26:40.914Z,65.29
2018-11-11T07:35:01.986Z,65.30
2018-11-11T07:43:23.003Z,65.52
2018-11-11T07:51:44.058Z,65.18
2018-11-11T08:00:05.072Z,65.20
2018-11-11T08:08:26.097Z,65.88
2018-11-11T08:16:47.194Z,63.13
2018-11-11T08:25:08.133Z,61.42
2018-11-11T08:33:30.009Z,59.45
2018-11-11T08:41:51.039Z,61.65
2018-11-11T08:50:12.018Z,61.66
2018-11-11T08:58:33.045Z,61.96
2018-11-11T09:06:54.116Z,61.35
2018-11-11T09:15:15.164Z,61.05
2018-11-11T09:23:36.229Z,60.17
2018-11-11T09:31:57.221Z,60.71
2018-11-11T09:40:18.230Z,60.01
2018-11-11T09:48:39.229Z,58.73
2018-11-11T09:57:00.240Z,59.77
2018-11-11T10:05:21.264Z,58.75
2018-11-11T10:13:42.255Z,56.61
2018-11-11T10:22:03.258Z,56.11
2018-11-11T10:30:24.337Z,55.98
2018-11-11T10:38:45.365Z,55.45
2018-11-11T10:47:06.351Z,55.49
2018-11-11T10:55:27.369Z,55.76
2018-11-11T11:03:48.413Z,53.95
2018-11-11T11:12:09.444Z,54.50
2018-11-11T11:20:30.445Z,53.13
2018-11-11T11:28:51.446Z,54.38
2018-11-11T11:37:12.497Z,53.55
2018-11-11T11:45:33.501Z,54.54
2018-11-11T11:53:54.576Z,53.69
2018-11-11T12:02:15.724Z,53.25
2018-11-11T12:10:36.614Z,52.76
2018-11-11T12:18:57.633Z,53.39
2018-11-11T12:27:18.615Z,54.11
2018-11-11T12:35:39.693Z,54.61
2018-11-11T12:44:00.702Z,53.25
2018-11-11T12:52:21.702Z,53.67
2018-11-11T13:00:42.786Z,51.39
2018-11-11T13:09:03.718Z,52.25
2018-11-11T13:17:24.706Z,52.36
2018-11-11T13:25:45.724Z,55.24
2018-11-11T13:34:06.733Z,61.09
2018-11-11T13:42:27.753Z,65.03
2018-11-11T13:50:48.761Z,71.18
2018-11-11T13:59:09.765Z,71.83
2018-11-11T14:07:30.767Z,71.57
2018-11-11T14:15:51.779Z,73.23
2018-11-11T14:24:12.779Z,70.47
2018-11-11T14:32:33.894Z,70.54
2018-11-11T14:40:54.890Z,71.09
2018-11-11T14:49:15.897Z,71.21
2018-11-11T14:57:36.909Z,71.83
2018-11-11T15:05:57.928Z,74.50
2018-11-11T15:14:18.935Z,77.11
2018-11-11T15:22:39.942Z,76.00
2018-11-11T15:31:01.080Z,74.79
2018-11-11T15:39:21.997Z,73.46
2018-11-11T15:47:43.007Z,72.75
2018-11-11T15:56:04.032Z,71.35
2018-11-11T16:04:25.033Z,71.97
2018-11-11T16:12:46.176Z,71.27
2018-11-11T16:21:07.266Z,72.25
2018-11-11T16:29:28.482Z,73.59
2018-11-11T16:37:49.465Z,73.30
2018-11-11T16:46:10.520Z,72.14
2018-11-11T16:54:31.594Z,71.95
2018-11-11T17:02:52.614Z,70.94
2018-11-11T17:11:13.618Z,70.07
2018-11-11T17:19:34.621Z,69.74
2018-11-11T17:27:55.723Z,69.85
2018-11-11T17:36:16.646Z,69.92
2018-11-11T17:44:37.737Z,71.49
2018-11-11T17:52:58.802Z,77.26
2018-11-11T18:01:19.783Z,75.66
2018-11-11T18:09:40.784Z,76.84
2018-11-11T18:18:01.819Z,76.51
2018-11-11T18:26:22.907Z,75.63
2018-11-11T18:34:43.867Z,75.28
2018-11-11T18:43:04.888Z,75.56
2018-11-11T18:51:26.005Z,74.71
2018-11-11T18:59:47.273Z,74.60
2018-11-11T19:08:08.296Z,75.32
2018-11-11T19:16:29.441Z,76.29
2018-11-11T19:24:50.605Z,76.83
2018-11-11T19:33:11.835Z,78.62
2018-11-11T19:41:32.940Z,80.84
2018-11-11T19:49:53.913Z,80.63
2018-11-11T19:58:14.949Z,83.33
2018-11-11T20:06:36.012Z,83.85
2018-11-11T20:14:57.032Z,81.42
2018-11-11T20:23:18.053Z,81.66
2018-11-11T20:31:39.206Z,80.57
2018-11-11T20:40:00.098Z,79.59
2018-11-11T20:48:21.105Z,81.48
2018-11-11T20:56:42.245Z,79.72
2018-11-11T21:05:03.240Z,78.87
2018-11-11T21:13:24.376Z,78.71
2018-11-11T21:21:45.420Z,78.39
2018-11-11T21:30:06.421Z,77.83
2018-11-11T21:38:27.519Z,76.83
2018-11-11T21:46:48.555Z,76.06
2018-11-11T21:55:09.584Z,75.48
2018-11-11T22:03:30.615Z,75.73
2018-11-11T22:11:51.619Z,75.40
2018-11-11T22:20:12.646Z,75.44
2018-11-11T22:28:33.675Z,75.54
2018-11-11T22:36:54.654Z,75.33
2018-11-11T22:45:15.649Z,75.60
2018-11-11T22:53:36.674Z,74.26
2018-11-11T23:01:57.658Z,73.68
2018-11-11T23:10:18.640Z,73.60
2018-11-11T23:18:39.672Z,72.48
2018-11-11T23:27:00.675Z,72.69
2018-11-11T23:35:21.711Z,71.64
2018-11-11T23:43:42.719Z,72.50
2018-11-11T23:52:03.708Z,71.92
